sensor_id;sensor_type;location;lat;lon;timestamp;temperature;humidity
17370;DHT22;8802;52.402;4.920;2022-07-01T00:00:17;19.20;92.30
17370;DHT22;8802;52.402;4.920;2022-07-01T00:02:44;19.20;92.40
17370;DHT22;8802;52.402;4.920;2022-07-01T00:05:11;19.10;92.10
17370;DHT22;8802;52.402;4.920;2022-07-01T00:07:38;19.20;92.40
17370;DHT22;8802;52.402;4.920;2022-07-01T00:10:06;19.20;92.10
17370;DHT22;8802;52.402;4.920;2022-07-01T00:12:33;19.10;92.10
17370;DHT22;8802;52.402;4.920;2022-07-01T00:15:01;19.10;92.20
17370;DHT22;8802;52.402;4.920;2022-07-01T00:17:29;19.20;92.30
17370;DHT22;8802;52.402;4.920;2022-07-01T00:19:56;19.10;92.10
17370;DHT22;8802;52.402;4.920;2022-07-01T00:22:23;19.10;92.10
17370;DHT22;8802;52.402;4.920;2022-07-01T00:24:49;19.10;92.10
17370;DHT22;8802;52.402;4.920;2022-07-01T00:27:16;19.10;92.10
17370;DHT22;8802;52.402;4.920;2022-07-01T00:29:43;19.10;92.20
17370;DHT22;8802;52.402;4.920;2022-07-01T00:32:11;19.10;92.70
17370;DHT22;8802;52.402;4.920;2022-07-01T00:34:39;19.10;92.30
17370;DHT22;8802;52.402;4.920;2022-07-01T00:37:06;19.10;92.30
17370;DHT22;8802;52.402;4.920;2022-07-01T00:39:32;19.10;92.30
17370;DHT22;8802;52.402;4.920;2022-07-01T00:42:01;19.00;92.40
17370;DHT22;8802;52.402;4.920;2022-07-01T00:44:29;19.00;92.80
17370;DHT22;8802;52.402;4.920;2022-07-01T00:46:58;19.00;92.40
17370;DHT22;8802;52.402;4.920;2022-07-01T00:49:27;19.10;92.50
17370;DHT22;8802;52.402;4.920;2022-07-01T00:51:53;19.00;92.90
17370;DHT22;8802;52.402;4.920;2022-07-01T00:54:20;19.00;92.60
17370;DHT22;8802;52.402;4.920;2022-07-01T00:56:48;19.00;92.70
17370;DHT22;8802;52.402;4.920;2022-07-01T00:59:15;19.10;92.80
17370;DHT22;8802;52.402;4.920;2022-07-01T01:01:42;19.00;92.70
17370;DHT22;8802;52.402;4.920;2022-07-01T01:04:09;19.00;92.70
17370;DHT22;8802;52.402;4.920;2022-07-01T01:06:37;19.00;92.70
17370;DHT22;8802;52.402;4.920;2022-07-01T01:09:04;19.10;92.80
17370;DHT22;8802;52.402;4.920;2022-07-01T01:11:31;19.00;92.80
17370;DHT22;8802;52.402;4.920;2022-07-01T01:13:58;19.00;92.70
17370;DHT22;8802;52.402;4.920;2022-07-01T01:16:25;19.00;92.60
17370;DHT22;8802;52.402;4.920;2022-07-01T01:18:52;19.00;92.60
17370;DHT22;8802;52.402;4.920;2022-07-01T01:21:20;19.00;92.70
17370;DHT22;8802;52.402;4.920;2022-07-01T01:23:47;19.00;92.80
17370;DHT22;8802;52.402;4.920;2022-07-01T01:26:19;18.90;92.80
17370;DHT22;8802;52.402;4.920;2022-07-01T01:28:46;18.90;92.80
17370;DHT22;8802;52.402;4.920;2022-07-01T01:31:13;18.90;92.80
17370;DHT22;8802;52.402;4.920;2022-07-01T01:33:40;18.90;92.80
17370;DHT22;8802;52.402;4.920;2022-07-01T01:36:07;18.90;92.80
17370;DHT22;8802;52.402;4.920;2022-07-01T01:38:36;18.90;92.80
17370;DHT22;8802;52.402;4.920;2022-07-01T01:41:04;18.90;93.20
17370;DHT22;8802;52.402;4.920;2022-07-01T01:43:31;18.90;92.80
17370;DHT22;8802;52.402;4.920;2022-07-01T01:46:00;18.90;92.90
17370;DHT22;8802;52.402;4.920;2022-07-01T01:48:27;18.80;93.00
17370;DHT22;8802;52.402;4.920;2022-07-01T01:50:54;18.90;93.00
17370;DHT22;8802;52.402;4.920;2022-07-01T01:53:20;18.80;92.90
17370;DHT22;8802;52.402;4.920;2022-07-01T01:55:49;18.80;92.90
17370;DHT22;8802;52.402;4.920;2022-07-01T01:58:16;18.80;93.10
17370;DHT22;8802;52.402;4.920;2022-07-01T02:00:43;18.80;93.00
17370;DHT22;8802;52.402;4.920;2022-07-01T02:03:10;18.80;93.10
17370;DHT22;8802;52.402;4.920;2022-07-01T02:05:37;18.80;93.10
17370;DHT22;8802;52.402;4.920;2022-07-01T02:08:04;18.80;93.10
17370;DHT22;8802;52.402;4.920;2022-07-01T02:10:31;18.80;93.00
17370;DHT22;8802;52.402;4.920;2022-07-01T02:12:59;18.80;93.10
17370;DHT22;8802;52.402;4.920;2022-07-01T02:15:26;18.70;93.00
17370;DHT22;8802;52.402;4.920;2022-07-01T02:17:53;18.70;92.90
17370;DHT22;8802;52.402;4.920;2022-07-01T02:20:22;18.70;93.00
17370;DHT22;8802;52.402;4.920;2022-07-01T02:22:49;18.70;93.00
17370;DHT22;8802;52.402;4.920;2022-07-01T02:25:17;18.70;93.00
17370;DHT22;8802;52.402;4.920;2022-07-01T02:27:44;18.70;92.90
17370;DHT22;8802;52.402;4.920;2022-07-01T02:30:13;18.70;92.90
17370;DHT22;8802;52.402;4.920;2022-07-01T02:32:40;18.70;92.90
17370;DHT22;8802;52.402;4.920;2022-07-01T02:35:08;18.70;93.00
17370;DHT22;8802;52.402;4.920;2022-07-01T02:37:35;18.70;92.90
17370;DHT22;8802;52.402;4.920;2022-07-01T02:40:03;18.60;92.90
17370;DHT22;8802;52.402;4.920;2022-07-01T02:42:30;18.70;93.10
17370;DHT22;8802;52.402;4.920;2022-07-01T02:45:01;18.60;93.10
17370;DHT22;8802;52.402;4.920;2022-07-01T02:47:32;18.60;93.00
17370;DHT22;8802;52.402;4.920;2022-07-01T02:49:59;18.60;93.10
17370;DHT22;8802;52.402;4.920;2022-07-01T02:52:26;18.60;93.00
17370;DHT22;8802;52.402;4.920;2022-07-01T02:54:53;18.60;93.10
17370;DHT22;8802;52.402;4.920;2022-07-01T02:57:20;18.60;93.10
17370;DHT22;8802;52.402;4.920;2022-07-01T02:59:47;18.60;93.20
17370;DHT22;8802;52.402;4.920;2022-07-01T03:02:16;18.50;93.20
17370;DHT22;8802;52.402;4.920;2022-07-01T03:04:45;18.60;93.20
17370;DHT22;8802;52.402;4.920;2022-07-01T03:07:12;18.50;93.10
17370;DHT22;8802;52.402;4.920;2022-07-01T03:09:39;18.50;93.10
17370;DHT22;8802;52.402;4.920;2022-07-01T03:12:07;18.50;93.30
17370;DHT22;8802;52.402;4.920;2022-07-01T03:14:47;18.50;93.20
17370;DHT22;8802;52.402;4.920;2022-07-01T03:17:14;18.50;93.50
17370;DHT22;8802;52.402;4.920;2022-07-01T03:19:41;18.50;93.20
17370;DHT22;8802;52.402;4.920;2022-07-01T03:22:09;18.60;93.20
17370;DHT22;8802;52.402;4.920;2022-07-01T03:24:36;18.60;93.20
17370;DHT22;8802;52.402;4.920;2022-07-01T03:27:03;18.50;93.20
17370;DHT22;8802;52.402;4.920;2022-07-01T03:29:30;18.50;93.30
17370;DHT22;8802;52.402;4.920;2022-07-01T03:31:57;18.50;93.30
17370;DHT22;8802;52.402;4.920;2022-07-01T03:34:24;18.50;93.30
17370;DHT22;8802;52.402;4.920;2022-07-01T03:36:50;18.50;93.10
17370;DHT22;8802;52.402;4.920;2022-07-01T03:39:19;18.50;93.10
17370;DHT22;8802;52.402;4.920;2022-07-01T03:41:45;18.50;93.20
17370;DHT22;8802;52.402;4.920;2022-07-01T03:44:12;18.50;93.10
17370;DHT22;8802;52.402;4.920;2022-07-01T03:46:39;18.50;93.20
17370;DHT22;8802;52.402;4.920;2022-07-01T03:49:06;18.50;93.30
17370;DHT22;8802;52.402;4.920;2022-07-01T03:51:33;18.50;93.40
17370;DHT22;8802;52.402;4.920;2022-07-01T03:54:00;18.50;93.40
17370;DHT22;8802;52.402;4.920;2022-07-01T03:56:46;18.50;93.40
17370;DHT22;8802;52.402;4.920;2022-07-01T03:59:13;18.50;93.40
17370;DHT22;8802;52.402;4.920;2022-07-01T04:01:39;18.50;93.30
17370;DHT22;8802;52.402;4.920;2022-07-01T04:04:06;18.50;93.30
17370;DHT22;8802;52.402;4.920;2022-07-01T04:06:34;18.50;93.30
17370;DHT22;8802;52.402;4.920;2022-07-01T04:09:01;18.50;93.40
17370;DHT22;8802;52.402;4.920;2022-07-01T04:11:28;18.50;93.40
17370;DHT22;8802;52.402;4.920;2022-07-01T04:13:56;18.50;93.40
17370;DHT22;8802;52.402;4.920;2022-07-01T04:16:23;18.50;93.40
17370;DHT22;8802;52.402;4.920;2022-07-01T04:18:52;18.40;93.30
17370;DHT22;8802;52.402;4.920;2022-07-01T04:21:18;18.40;93.40
17370;DHT22;8802;52.402;4.920;2022-07-01T04:24:04;18.50;93.40
17370;DHT22;8802;52.402;4.920;2022-07-01T04:26:31;18.40;93.30
17370;DHT22;8802;52.402;4.920;2022-07-01T04:28:59;18.50;93.40
17370;DHT22;8802;52.402;4.920;2022-07-01T04:31:26;18.40;93.30
17370;DHT22;8802;52.402;4.920;2022-07-01T04:33:53;18.40;93.30
17370;DHT22;8802;52.402;4.920;2022-07-01T04:36:20;18.40;93.50
17370;DHT22;8802;52.402;4.920;2022-07-01T04:38:47;18.40;93.40
17370;DHT22;8802;52.402;4.920;2022-07-01T04:41:14;18.40;93.40
17370;DHT22;8802;52.402;4.920;2022-07-01T04:43:59;18.40;93.50
17370;DHT22;8802;52.402;4.920;2022-07-01T04:46:26;18.40;93.50
17370;DHT22;8802;52.402;4.920;2022-07-01T04:48:53;18.40;93.40
17370;DHT22;8802;52.402;4.920;2022-07-01T04:51:20;18.50;93.60
17370;DHT22;8802;52.402;4.920;2022-07-01T04:53:47;18.50;93.60
17370;DHT22;8802;52.402;4.920;2022-07-01T04:56:15;18.50;93.60
17370;DHT22;8802;52.402;4.920;2022-07-01T04:58:42;18.50;93.50
17370;DHT22;8802;52.402;4.920;2022-07-01T05:01:10;18.50;93.50
17370;DHT22;8802;52.402;4.920;2022-07-01T05:03:37;18.50;93.40
17370;DHT22;8802;52.402;4.920;2022-07-01T05:06:05;18.50;93.40
17370;DHT22;8802;52.402;4.920;2022-07-01T05:08:31;18.50;93.20
17370;DHT22;8802;52.402;4.920;2022-07-01T05:10:58;18.50;93.70
17370;DHT22;8802;52.402;4.920;2022-07-01T05:13:25;18.50;93.30
17370;DHT22;8802;52.402;4.920;2022-07-01T05:15:52;18.50;93.30
17370;DHT22;8802;52.402;4.920;2022-07-01T05:18:20;18.50;93.30
17370;DHT22;8802;52.402;4.920;2022-07-01T05:21:04;18.60;93.50
17370;DHT22;8802;52.402;4.920;2022-07-01T05:23:48;18.60;93.60
17370;DHT22;8802;52.402;4.920;2022-07-01T05:26:15;18.60;93.50
17370;DHT22;8802;52.402;4.920;2022-07-01T05:28:42;18.60;93.60
17370;DHT22;8802;52.402;4.920;2022-07-01T05:31:10;18.60;93.60
17370;DHT22;8802;52.402;4.920;2022-07-01T05:33:39;18.70;93.60
17370;DHT22;8802;52.402;4.920;2022-07-01T05:36:06;18.70;93.60
17370;DHT22;8802;52.402;4.920;2022-07-01T05:38:33;18.70;93.60
17370;DHT22;8802;52.402;4.920;2022-07-01T05:40:59;18.70;93.50
17370;DHT22;8802;52.402;4.920;2022-07-01T05:43:26;18.80;93.40
17370;DHT22;8802;52.402;4.920;2022-07-01T05:45:54;18.80;93.30
17370;DHT22;8802;52.402;4.920;2022-07-01T05:48:21;18.80;93.30
17370;DHT22;8802;52.402;4.920;2022-07-01T05:50:50;18.80;93.30
17370;DHT22;8802;52.402;4.920;2022-07-01T05:53:17;18.80;93.20
17370;DHT22;8802;52.402;4.920;2022-07-01T05:55:43;18.80;93.70
17370;DHT22;8802;52.402;4.920;2022-07-01T05:58:11;18.90;93.20
17370;DHT22;8802;52.402;4.920;2022-07-01T06:00:38;18.90;93.10
17370;DHT22;8802;52.402;4.920;2022-07-01T06:03:07;18.90;93.30
17370;DHT22;8802;52.402;4.920;2022-07-01T06:05:33;18.90;93.20
17370;DHT22;8802;52.402;4.920;2022-07-01T06:08:02;18.90;93.10
17370;DHT22;8802;52.402;4.920;2022-07-01T06:10:29;18.90;93.20
17370;DHT22;8802;52.402;4.920;2022-07-01T06:12:56;19.00;93.10
17370;DHT22;8802;52.402;4.920;2022-07-01T06:15:23;19.00;93.10
17370;DHT22;8802;52.402;4.920;2022-07-01T06:17:50;19.00;93.20
17370;DHT22;8802;52.402;4.920;2022-07-01T06:20:18;19.00;93.20
17370;DHT22;8802;52.402;4.920;2022-07-01T06:22:44;19.00;93.30
17370;DHT22;8802;52.402;4.920;2022-07-01T06:25:13;19.00;93.20
17370;DHT22;8802;52.402;4.920;2022-07-01T06:27:40;19.00;93.20
17370;DHT22;8802;52.402;4.920;2022-07-01T06:30:07;19.00;93.10
17370;DHT22;8802;52.402;4.920;2022-07-01T06:32:35;19.10;93.10
17370;DHT22;8802;52.402;4.920;2022-07-01T06:35:02;19.10;93.00
17370;DHT22;8802;52.402;4.920;2022-07-01T06:37:28;19.10;93.10
17370;DHT22;8802;52.402;4.920;2022-07-01T06:39:58;19.10;93.10
17370;DHT22;8802;52.402;4.920;2022-07-01T06:42:26;19.20;93.40
17370;DHT22;8802;52.402;4.920;2022-07-01T06:44:53;19.20;93.20
17370;DHT22;8802;52.402;4.920;2022-07-01T06:47:20;19.30;93.20
17370;DHT22;8802;52.402;4.920;2022-07-01T06:49:47;19.30;93.20
17370;DHT22;8802;52.402;4.920;2022-07-01T06:52:14;19.40;93.20
17370;DHT22;8802;52.402;4.920;2022-07-01T06:54:41;19.50;93.10
17370;DHT22;8802;52.402;4.920;2022-07-01T06:57:08;19.50;93.00
17370;DHT22;8802;52.402;4.920;2022-07-01T06:59:36;19.60;92.90
17370;DHT22;8802;52.402;4.920;2022-07-01T07:02:03;19.60;92.60
17370;DHT22;8802;52.402;4.920;2022-07-01T07:04:32;19.70;92.50
17370;DHT22;8802;52.402;4.920;2022-07-01T07:06:59;19.70;92.20
17370;DHT22;8802;52.402;4.920;2022-07-01T07:09:26;19.70;92.00
17370;DHT22;8802;52.402;4.920;2022-07-01T07:11:53;19.70;91.80
17370;DHT22;8802;52.402;4.920;2022-07-01T07:14:20;19.80;91.90
17370;DHT22;8802;52.402;4.920;2022-07-01T07:16:48;19.80;91.90
17370;DHT22;8802;52.402;4.920;2022-07-01T07:19:16;19.90;92.20
17370;DHT22;8802;52.402;4.920;2022-07-01T07:21:43;19.90;92.20
17370;DHT22;8802;52.402;4.920;2022-07-01T07:24:10;20.00;91.90
17370;DHT22;8802;52.402;4.920;2022-07-01T07:26:37;20.10;92.10
17370;DHT22;8802;52.402;4.920;2022-07-01T07:29:04;20.10;91.70
17370;DHT22;8802;52.402;4.920;2022-07-01T07:31:30;20.20;92.10
17370;DHT22;8802;52.402;4.920;2022-07-01T07:33:59;20.30;91.50
17370;DHT22;8802;52.402;4.920;2022-07-01T07:36:26;20.30;91.40
17370;DHT22;8802;52.402;4.920;2022-07-01T07:38:52;20.40;90.90
17370;DHT22;8802;52.402;4.920;2022-07-01T07:41:19;20.40;90.50
17370;DHT22;8802;52.402;4.920;2022-07-01T07:43:46;20.40;90.60
17370;DHT22;8802;52.402;4.920;2022-07-01T07:46:14;20.50;90.70
17370;DHT22;8802;52.402;4.920;2022-07-01T07:48:41;20.50;90.20
17370;DHT22;8802;52.402;4.920;2022-07-01T07:51:10;20.60;90.20
17370;DHT22;8802;52.402;4.920;2022-07-01T07:53:40;20.70;90.00
17370;DHT22;8802;52.402;4.920;2022-07-01T07:56:07;20.70;90.20
17370;DHT22;8802;52.402;4.920;2022-07-01T07:58:34;20.70;89.40
17370;DHT22;8802;52.402;4.920;2022-07-01T08:01:01;20.80;89.90
17370;DHT22;8802;52.402;4.920;2022-07-01T08:03:27;20.90;89.50
17370;DHT22;8802;52.402;4.920;2022-07-01T08:05:54;21.00;88.70
17370;DHT22;8802;52.402;4.920;2022-07-01T08:08:22;21.00;88.90
17370;DHT22;8802;52.402;4.920;2022-07-01T08:10:49;21.10;88.80
17370;DHT22;8802;52.402;4.920;2022-07-01T08:13:16;21.10;88.60
17370;DHT22;8802;52.402;4.920;2022-07-01T08:15:43;21.20;88.30
17370;DHT22;8802;52.402;4.920;2022-07-01T08:18:10;21.20;86.70
17370;DHT22;8802;52.402;4.920;2022-07-01T08:20:37;21.20;85.10
17370;DHT22;8802;52.402;4.920;2022-07-01T08:23:04;21.20;85.30
17370;DHT22;8802;52.402;4.920;2022-07-01T08:25:32;21.20;85.10
17370;DHT22;8802;52.402;4.920;2022-07-01T08:27:59;21.20;84.20
17370;DHT22;8802;52.402;4.920;2022-07-01T08:30:25;21.10;84.10
17370;DHT22;8802;52.402;4.920;2022-07-01T08:32:52;21.10;83.40
17370;DHT22;8802;52.402;4.920;2022-07-01T08:35:19;21.10;84.50
17370;DHT22;8802;52.402;4.920;2022-07-01T08:37:46;21.00;84.00
17370;DHT22;8802;52.402;4.920;2022-07-01T08:40:13;21.00;84.10
17370;DHT22;8802;52.402;4.920;2022-07-01T08:42:41;21.00;85.20
17370;DHT22;8802;52.402;4.920;2022-07-01T08:45:09;21.00;84.10
17370;DHT22;8802;52.402;4.920;2022-07-01T08:47:49;20.90;82.80
17370;DHT22;8802;52.402;4.920;2022-07-01T08:50:16;20.90;82.20
17370;DHT22;8802;52.402;4.920;2022-07-01T08:52:43;20.90;82.70
17370;DHT22;8802;52.402;4.920;2022-07-01T08:55:10;20.80;82.50
17370;DHT22;8802;52.402;4.920;2022-07-01T08:57:37;20.80;82.70
17370;DHT22;8802;52.402;4.920;2022-07-01T09:00:07;20.80;83.00
17370;DHT22;8802;52.402;4.920;2022-07-01T09:02:51;20.80;83.90
17370;DHT22;8802;52.402;4.920;2022-07-01T09:05:19;20.90;84.00
17370;DHT22;8802;52.402;4.920;2022-07-01T09:07:46;20.90;83.10
17370;DHT22;8802;52.402;4.920;2022-07-01T09:10:15;20.90;82.20
17370;DHT22;8802;52.402;4.920;2022-07-01T09:12:43;20.90;82.60
17370;DHT22;8802;52.402;4.920;2022-07-01T09:15:23;20.90;83.20
17370;DHT22;8802;52.402;4.920;2022-07-01T09:17:52;20.90;83.80
17370;DHT22;8802;52.402;4.920;2022-07-01T09:20:29;20.90;83.90
17370;DHT22;8802;52.402;4.920;2022-07-01T09:23:01;20.90;83.70
17370;DHT22;8802;52.402;4.920;2022-07-01T09:25:30;20.90;83.80
17370;DHT22;8802;52.402;4.920;2022-07-01T09:28:05;20.90;84.10
17370;DHT22;8802;52.402;4.920;2022-07-01T09:30:34;21.00;84.50
17370;DHT22;8802;52.402;4.920;2022-07-01T09:33:08;21.00;84.10
17370;DHT22;8802;52.402;4.920;2022-07-01T09:35:36;21.10;84.80
17370;DHT22;8802;52.402;4.920;2022-07-01T09:38:04;21.20;85.00
17370;DHT22;8802;52.402;4.920;2022-07-01T09:40:48;21.30;84.90
17370;DHT22;8802;52.402;4.920;2022-07-01T09:43:17;21.40;84.10
17370;DHT22;8802;52.402;4.920;2022-07-01T09:45:57;21.50;85.00
17370;DHT22;8802;52.402;4.920;2022-07-01T09:48:26;21.70;84.30
17370;DHT22;8802;52.402;4.920;2022-07-01T09:50:53;21.80;83.10
17370;DHT22;8802;52.402;4.920;2022-07-01T09:53:20;22.00;82.80
17370;DHT22;8802;52.402;4.920;2022-07-01T09:55:48;22.10;83.20
17370;DHT22;8802;52.402;4.920;2022-07-01T09:58:15;22.20;82.20
17370;DHT22;8802;52.402;4.920;2022-07-01T10:00:42;22.30;82.00
17370;DHT22;8802;52.402;4.920;2022-07-01T10:03:11;22.40;82.70
17370;DHT22;8802;52.402;4.920;2022-07-01T10:05:42;22.40;82.80
17370;DHT22;8802;52.402;4.920;2022-07-01T10:08:31;22.40;83.00
17370;DHT22;8802;52.402;4.920;2022-07-01T10:13:57;22.40;82.20
17370;DHT22;8802;52.402;4.920;2022-07-01T10:16:25;22.30;81.70
17370;DHT22;8802;52.402;4.920;2022-07-01T10:18:55;22.30;81.90
17370;DHT22;8802;52.402;4.920;2022-07-01T10:21:28;22.30;82.50
17370;DHT22;8802;52.402;4.920;2022-07-01T10:24:11;22.20;83.50
17370;DHT22;8802;52.402;4.920;2022-07-01T10:26:38;22.10;83.70
17370;DHT22;8802;52.402;4.920;2022-07-01T10:29:05;22.00;84.30
17370;DHT22;8802;52.402;4.920;2022-07-01T10:31:36;21.90;84.50
17370;DHT22;8802;52.402;4.920;2022-07-01T10:34:05;21.90;83.80
17370;DHT22;8802;52.402;4.920;2022-07-01T10:36:33;21.80;84.00
17370;DHT22;8802;52.402;4.920;2022-07-01T10:39:14;21.70;85.00
17370;DHT22;8802;52.402;4.920;2022-07-01T10:41:56;21.60;84.80
17370;DHT22;8802;52.402;4.920;2022-07-01T10:44:25;21.50;84.50
17370;DHT22;8802;52.402;4.920;2022-07-01T10:46:53;21.40;85.30
17370;DHT22;8802;52.402;4.920;2022-07-01T10:52:33;21.30;86.20
17370;DHT22;8802;52.402;4.920;2022-07-01T10:55:01;21.30;86.90
17370;DHT22;8802;52.402;4.920;2022-07-01T10:57:38;21.20;87.80
17370;DHT22;8802;52.402;4.920;2022-07-01T11:00:25;21.20;88.70
17370;DHT22;8802;52.402;4.920;2022-07-01T11:03:12;21.20;87.00
17370;DHT22;8802;52.402;4.920;2022-07-01T11:05:40;21.20;87.60
17370;DHT22;8802;52.402;4.920;2022-07-01T11:08:09;21.20;87.30
17370;DHT22;8802;52.402;4.920;2022-07-01T11:10:38;21.20;88.90
17370;DHT22;8802;52.402;4.920;2022-07-01T11:13:05;21.20;88.70
17370;DHT22;8802;52.402;4.920;2022-07-01T11:15:32;21.30;89.10
17370;DHT22;8802;52.402;4.920;2022-07-01T11:18:00;21.40;88.60
17370;DHT22;8802;52.402;4.920;2022-07-01T11:20:30;21.40;88.20
17370;DHT22;8802;52.402;4.920;2022-07-01T11:22:57;21.60;87.00
17370;DHT22;8802;52.402;4.920;2022-07-01T11:25:26;21.70;87.00
17370;DHT22;8802;52.402;4.920;2022-07-01T11:27:53;21.70;87.00
17370;DHT22;8802;52.402;4.920;2022-07-01T11:30:21;22.00;86.80
17370;DHT22;8802;52.402;4.920;2022-07-01T11:32:49;22.20;85.80
17370;DHT22;8802;52.402;4.920;2022-07-01T11:35:18;22.40;86.20
17370;DHT22;8802;52.402;4.920;2022-07-01T11:38:08;22.50;83.80
17370;DHT22;8802;52.402;4.920;2022-07-01T11:40:55;22.70;82.50
17370;DHT22;8802;52.402;4.920;2022-07-01T11:43:23;22.90;82.80
17370;DHT22;8802;52.402;4.920;2022-07-01T11:45:51;23.10;81.90
17370;DHT22;8802;52.402;4.920;2022-07-01T11:48:38;23.20;82.30
17370;DHT22;8802;52.402;4.920;2022-07-01T11:51:09;23.40;80.50
17370;DHT22;8802;52.402;4.920;2022-07-01T11:53:37;23.50;79.10
17370;DHT22;8802;52.402;4.920;2022-07-01T11:56:06;23.60;77.90
17370;DHT22;8802;52.402;4.920;2022-07-01T11:58:48;23.60;77.50
17370;DHT22;8802;52.402;4.920;2022-07-01T12:01:25;23.60;76.70
17370;DHT22;8802;52.402;4.920;2022-07-01T12:03:53;23.60;75.90
17370;DHT22;8802;52.402;4.920;2022-07-01T12:06:22;23.60;76.90
17370;DHT22;8802;52.402;4.920;2022-07-01T12:08:50;23.70;76.60
17370;DHT22;8802;52.402;4.920;2022-07-01T12:11:20;23.70;77.20
17370;DHT22;8802;52.402;4.920;2022-07-01T12:13:48;23.70;77.20
17370;DHT22;8802;52.402;4.920;2022-07-01T12:16:16;23.70;75.10
17370;DHT22;8802;52.402;4.920;2022-07-01T12:18:54;23.70;76.10
17370;DHT22;8802;52.402;4.920;2022-07-01T12:21:21;23.80;76.60
17370;DHT22;8802;52.402;4.920;2022-07-01T12:24:08;23.80;75.80
17370;DHT22;8802;52.402;4.920;2022-07-01T12:26:46;23.90;76.00
17370;DHT22;8802;52.402;4.920;2022-07-01T12:29:13;24.00;74.60
17370;DHT22;8802;52.402;4.920;2022-07-01T12:31:40;24.10;75.40
17370;DHT22;8802;52.402;4.920;2022-07-01T12:34:07;24.10;74.40
17370;DHT22;8802;52.402;4.920;2022-07-01T12:36:34;24.30;74.70
17370;DHT22;8802;52.402;4.920;2022-07-01T12:39:05;24.30;74.20
17370;DHT22;8802;52.402;4.920;2022-07-01T12:41:33;24.40;73.30
17370;DHT22;8802;52.402;4.920;2022-07-01T12:44:05;24.40;72.70
17370;DHT22;8802;52.402;4.920;2022-07-01T12:46:33;24.40;72.00
17370;DHT22;8802;52.402;4.920;2022-07-01T12:49:00;24.40;72.10
17370;DHT22;8802;52.402;4.920;2022-07-01T12:51:31;24.30;72.30
17370;DHT22;8802;52.402;4.920;2022-07-01T12:53:58;24.30;72.10
17370;DHT22;8802;52.402;4.920;2022-07-01T12:56:27;24.20;73.20
17370;DHT22;8802;52.402;4.920;2022-07-01T12:58:54;24.10;73.00
17370;DHT22;8802;52.402;4.920;2022-07-01T13:01:23;24.00;73.90
17370;DHT22;8802;52.402;4.920;2022-07-01T13:03:50;23.90;74.60
17370;DHT22;8802;52.402;4.920;2022-07-01T13:06:17;23.70;75.20
17370;DHT22;8802;52.402;4.920;2022-07-01T13:08:44;23.60;77.20
17370;DHT22;8802;52.402;4.920;2022-07-01T13:11:11;23.50;78.40
17370;DHT22;8802;52.402;4.920;2022-07-01T13:13:38;23.40;77.20
17370;DHT22;8802;52.402;4.920;2022-07-01T13:16:05;23.40;78.50
17370;DHT22;8802;52.402;4.920;2022-07-01T13:18:33;23.40;78.20
17370;DHT22;8802;52.402;4.920;2022-07-01T13:21:00;23.30;79.00
17370;DHT22;8802;52.402;4.920;2022-07-01T13:23:27;23.40;78.60
17370;DHT22;8802;52.402;4.920;2022-07-01T13:25:54;23.30;78.70
17370;DHT22;8802;52.402;4.920;2022-07-01T13:28:21;23.40;79.90
17370;DHT22;8802;52.402;4.920;2022-07-01T13:30:48;23.40;78.50
17370;DHT22;8802;52.402;4.920;2022-07-01T13:33:14;23.50;78.40
17370;DHT22;8802;52.402;4.920;2022-07-01T13:35:43;23.50;78.50
17370;DHT22;8802;52.402;4.920;2022-07-01T13:38:10;23.50;77.70
17370;DHT22;8802;52.402;4.920;2022-07-01T13:40:36;23.50;77.40
17370;DHT22;8802;52.402;4.920;2022-07-01T13:43:03;23.50;76.40
17370;DHT22;8802;52.402;4.920;2022-07-01T13:45:30;23.60;77.40
17370;DHT22;8802;52.402;4.920;2022-07-01T13:47:57;23.60;77.10
17370;DHT22;8802;52.402;4.920;2022-07-01T13:50:24;23.60;76.30
17370;DHT22;8802;52.402;4.920;2022-07-01T13:52:52;23.60;75.40
17370;DHT22;8802;52.402;4.920;2022-07-01T13:55:19;23.60;75.20
17370;DHT22;8802;52.402;4.920;2022-07-01T13:57:46;23.60;75.40
17370;DHT22;8802;52.402;4.920;2022-07-01T14:00:13;23.50;74.70
17370;DHT22;8802;52.402;4.920;2022-07-01T14:02:40;23.50;74.60
17370;DHT22;8802;52.402;4.920;2022-07-01T14:05:08;23.50;74.40
17370;DHT22;8802;52.402;4.920;2022-07-01T14:07:35;23.50;74.90
17370;DHT22;8802;52.402;4.920;2022-07-01T14:10:04;23.50;74.40
17370;DHT22;8802;52.402;4.920;2022-07-01T14:12:31;23.50;74.50
17370;DHT22;8802;52.402;4.920;2022-07-01T14:14:59;23.50;74.50
17370;DHT22;8802;52.402;4.920;2022-07-01T14:17:26;23.40;74.40
17370;DHT22;8802;52.402;4.920;2022-07-01T14:19:54;23.50;74.40
17370;DHT22;8802;52.402;4.920;2022-07-01T14:22:23;23.50;74.30
17370;DHT22;8802;52.402;4.920;2022-07-01T14:24:50;23.50;74.60
17370;DHT22;8802;52.402;4.920;2022-07-01T14:27:18;23.50;74.70
17370;DHT22;8802;52.402;4.920;2022-07-01T14:29:45;23.40;74.60
17370;DHT22;8802;52.402;4.920;2022-07-01T14:32:12;23.50;73.60
17370;DHT22;8802;52.402;4.920;2022-07-01T14:34:39;23.40;72.70
17370;DHT22;8802;52.402;4.920;2022-07-01T14:37:06;23.30;72.60
17370;DHT22;8802;52.402;4.920;2022-07-01T14:39:33;23.40;72.50
17370;DHT22;8802;52.402;4.920;2022-07-01T14:41:59;23.40;72.90
17370;DHT22;8802;52.402;4.920;2022-07-01T14:44:28;23.40;73.00
17370;DHT22;8802;52.402;4.920;2022-07-01T14:46:55;23.40;72.80
17370;DHT22;8802;52.402;4.920;2022-07-01T14:49:22;23.40;73.10
17370;DHT22;8802;52.402;4.920;2022-07-01T14:51:49;23.50;72.60
17370;DHT22;8802;52.402;4.920;2022-07-01T14:54:16;23.50;72.80
17370;DHT22;8802;52.402;4.920;2022-07-01T14:56:43;23.50;72.30
17370;DHT22;8802;52.402;4.920;2022-07-01T14:59:10;23.50;72.80
17370;DHT22;8802;52.402;4.920;2022-07-01T15:01:38;23.50;73.30
17370;DHT22;8802;52.402;4.920;2022-07-01T15:04:05;23.50;73.60
17370;DHT22;8802;52.402;4.920;2022-07-01T15:06:33;23.50;73.60
17370;DHT22;8802;52.402;4.920;2022-07-01T15:09:00;23.50;73.40
17370;DHT22;8802;52.402;4.920;2022-07-01T15:11:27;23.60;73.40
17370;DHT22;8802;52.402;4.920;2022-07-01T15:13:54;23.60;72.30
17370;DHT22;8802;52.402;4.920;2022-07-01T15:16:21;23.60;70.70
17370;DHT22;8802;52.402;4.920;2022-07-01T15:18:49;23.60;70.70
17370;DHT22;8802;52.402;4.920;2022-07-01T15:21:16;23.60;71.10
17370;DHT22;8802;52.402;4.920;2022-07-01T15:23:43;23.60;70.80
17370;DHT22;8802;52.402;4.920;2022-07-01T15:26:10;23.60;70.10
17370;DHT22;8802;52.402;4.920;2022-07-01T15:28:37;23.60;70.90
17370;DHT22;8802;52.402;4.920;2022-07-01T15:31:04;23.60;70.80
17370;DHT22;8802;52.402;4.920;2022-07-01T15:33:32;23.60;70.00
17370;DHT22;8802;52.402;4.920;2022-07-01T15:36:00;23.60;69.90
17370;DHT22;8802;52.402;4.920;2022-07-01T15:38:27;23.60;68.10
17370;DHT22;8802;52.402;4.920;2022-07-01T15:40:54;23.60;68.80
17370;DHT22;8802;52.402;4.920;2022-07-01T15:43:21;23.60;68.80
17370;DHT22;8802;52.402;4.920;2022-07-01T15:45:48;23.60;67.80
17370;DHT22;8802;52.402;4.920;2022-07-01T15:48:15;23.60;67.90
17370;DHT22;8802;52.402;4.920;2022-07-01T15:50:42;23.60;67.40
17370;DHT22;8802;52.402;4.920;2022-07-01T15:53:10;23.60;66.90
17370;DHT22;8802;52.402;4.920;2022-07-01T15:55:40;23.60;67.10
17370;DHT22;8802;52.402;4.920;2022-07-01T15:58:09;23.60;67.30